Time;durP1;ratioP1;P1;durP2;ratioP2;P2;SDS_P1;SDS_P2;PMS_P1;PMS_P2;Temp;Humidity;BMP_temperature;BMP_pressure;BME280_temperature;BME280_humidity;BME280_pressure;Samples;Min_cycle;Max_cycle;Signal;HPM_P1;HPM_P2
2022/05/01 00:00:27;;;;;;;;;;;;;;;7.78;90.01;97364.37;30001;982;1878;-62
2022/05/01 00:00:58;;;;;;;;;;;;;;;7.78;89.44;97358.97;30001;982;1882;-62
2022/05/01 00:01:33;;;;;;;;;;;;;;;7.79;90.05;97366.00;30001;982;1877;-60
2022/05/01 00:02:07;;;;;;;;;;;;;;;7.81;89.40;97365.72;30001;986;1881;-59
2022/05/01 00:02:41;;;;;;;;;;;;;;;7.81;89.66;97358.44;30001;983;1877;-60
2022/05/01 00:04:01;;;;;;;;;;;;;;;7.85;89.50;97367.66;30001;983;1854;-63
2022/05/01 00:04:32;;;;;;;;;;;;;;;7.84;89.61;97366.03;30001;983;1872;-62
2022/05/01 00:05:03;;;;;;;;;;;;;;;7.86;89.81;97363.87;30001;983;1877;-61
2022/05/01 00:05:34;;;;;;;;;;;;;;;7.86;89.44;97361.16;30001;983;1881;-60
2022/05/01 00:06:09;;;;;;;;;;;;;;;7.86;89.37;97358.47;30001;983;1877;-61
2022/05/01 00:06:40;;;;;;;;;;;;;;;7.87;89.27;97353.88;30001;983;1881;-60
2022/05/01 00:07:12;;;;;;;;;;;;;;;7.86;89.13;97358.47;30001;982;1877;-63
2022/05/01 00:07:46;;;;;;;;;;;;;;;7.88;89.39;97361.72;30001;982;1882;-63
2022/05/01 00:08:17;;;;;;;;;;;;;;;7.88;89.44;97356.31;30001;982;1878;-62
2022/05/01 00:08:49;;;;;;;;;;;;;;;7.88;89.05;97353.63;30001;982;1882;-63
2022/05/01 00:09:20;;;;;;;;;;;;;;;7.88;89.10;97361.72;30001;982;1864;-60
2022/05/01 00:09:51;;;;;;;;;;;;;;;7.87;88.73;97357.38;30001;983;1872;-62
2022/05/01 00:10:21;;;;;;;;;;;;;;;7.87;89.08;97352.00;30001;983;1877;-60
2022/05/01 00:10:53;;;;;;;;;;;;;;;7.88;89.11;97356.31;30001;972;1901;-62
2022/05/01 00:11:23;;;;;;;;;;;;;;;7.88;89.04;97350.09;30001;983;1877;-61
2022/05/01 00:11:56;;;;;;;;;;;;;;;7.85;89.32;97356.84;30001;983;1881;-59
2022/05/01 00:12:29;;;;;;;;;;;;;;;7.84;89.54;97349.81;30001;983;1877;-61
2022/05/01 00:13:00;;;;;;;;;;;;;;;7.83;89.17;97350.88;30001;983;1881;-61
2022/05/01 00:13:32;;;;;;;;;;;;;;;7.83;89.57;97348.19;30001;983;1877;-62
2022/05/01 00:14:02;;;;;;;;;;;;;;;7.82;89.25;97351.16;30001;983;1882;-61
2022/05/01 00:14:34;;;;;;;;;;;;;;;7.81;89.21;97353.03;30001;983;1864;-60
2022/05/01 00:15:09;;;;;;;;;;;;;;;7.82;89.44;97351.16;30001;982;1873;-60
2022/05/01 00:15:39;;;;;;;;;;;;;;;7.82;89.81;97345.75;30001;982;1877;-61
2022/05/01 00:16:11;;;;;;;;;;;;;;;7.81;89.64;97350.34;30001;982;1882;-62
2022/05/01 00:16:45;;;;;;;;;;;;;;;7.79;89.83;97347.09;30001;982;1878;-60
2022/05/01 00:17:17;;;;;;;;;;;;;;;7.79;89.39;97357.88;30001;983;1881;-62
2022/05/01 00:17:48;;;;;;;;;;;;;;;7.80;89.88;97351.41;30001;983;1877;-62
2022/05/01 00:18:24;;;;;;;;;;;;;;;7.79;89.69;97349.78;30001;983;1881;-60
2022/05/01 00:18:54;;;;;;;;;;;;;;;7.80;89.85;97353.28;30001;983;1877;-59
2022/05/01 00:19:25;;;;;;;;;;;;;;;7.80;89.56;97356.81;30001;983;1868;-63
2022/05/01 00:19:56;;;;;;;;;;;;;;;7.79;89.73;97347.09;30001;983;1868;-62
2022/05/01 00:20:27;;;;;;;;;;;;;;;7.80;89.64;97342.50;30001;983;1881;-63
2022/05/01 00:20:57;;;;;;;;;;;;;;;7.80;89.75;97343.31;30001;983;1877;-63
2022/05/01 00:21:28;;;;;;;;;;;;;;;7.80;89.35;97348.72;30001;983;1881;-60
2022/05/01 00:21:59;;;;;;;;;;;;;;;7.80;89.42;97348.72;30001;983;1877;-60
2022/05/01 00:22:33;;;;;;;;;;;;;;;7.79;89.58;97347.09;30001;982;1882;-62
2022/05/01 00:23:07;;;;;;;;;;;;;;;7.79;89.64;97347.09;30001;982;1877;-59
2022/05/01 00:23:38;;;;;;;;;;;;;;;7.78;89.79;97360.84;30001;982;1869;-63
2022/05/01 00:24:09;;;;;;;;;;;;;;;7.77;90.19;97354.63;30001;982;1869;-62
2022/05/01 00:24:40;;;;;;;;;;;;;;;7.75;90.04;97345.97;30001;982;1882;-62
2022/05/01 00:25:13;;;;;;;;;;;;;;;7.74;89.97;97355.97;30001;983;1877;-62
2022/05/01 00:25:44;;;;;;;;;;;;;;;7.73;89.95;97350.84;30001;983;1881;-62
2022/05/01 00:26:14;;;;;;;;;;;;;;;7.73;89.96;97350.84;30001;983;1877;-61
2022/05/01 00:26:45;;;;;;;;;;;;;;;7.74;89.98;97349.75;30001;983;1868;-60
2022/05/01 00:27:17;;;;;;;;;;;;;;;7.74;90.04;97347.06;30001;983;1868;-62
2022/05/01 00:27:48;;;;;;;;;;;;;;;7.74;90.11;97352.47;30001;986;1881;-62
2022/05/01 00:28:19;;;;;;;;;;;;;;;7.74;90.50;97355.16;30001;983;1864;-62
2022/05/01 00:28:50;;;;;;;;;;;;;;;7.72;90.19;97347.31;30001;983;1873;-61
2022/05/01 00:29:21;;;;;;;;;;;;;;;7.71;90.22;97355.69;30001;982;1877;-60
2022/05/01 00:29:52;;;;;;;;;;;;;;;7.70;90.17;97345.94;30001;982;1858;-63
2022/05/01 00:30:26;;;;;;;;;;;;;;;7.71;90.20;97344.88;30001;982;1878;-62
2022/05/01 00:30:58;;;;;;;;;;;;;;;7.72;90.17;97341.09;30001;967;1816;-62
2022/05/01 00:31:28;;;;;;;;;;;;;;;7.72;90.35;97351.91;30001;982;1878;-63
2022/05/01 00:31:59;;;;;;;;;;;;;;;7.73;89.90;97345.44;30001;982;1882;-62
2022/05/01 00:36:25;;;;;;;;;;;;;;;7.73;89.86;97343.53;30001;983;1877;-62
2022/05/01 00:36:36;;;;;;;;;;;;;;;7.72;89.96;97351.91;30001;982;1873;-60
2022/05/01 00:37:07;;;;;;;;;;;;;;;7.70;89.93;97344.06;30001;963;1896;-61
2022/05/01 00:37:38;;;;;;;;;;;;;;;7.71;89.79;97344.88;30001;982;1799;-62
2022/05/01 00:38:09;;;;;;;;;;;;;;;7.70;90.11;97345.94;30001;982;1878;-62
2022/05/01 00:38:40;;;;;;;;;;;;;;;7.70;89.96;97337.84;30001;982;1882;-62
2022/05/01 00:39:14;;;;;;;;;;;;;;;7.70;89.87;97343.25;30001;984;1868;-63
2022/05/01 00:39:46;;;;;;;;;;;;;;;7.70;89.96;97345.94;30001;982;1882;-61
2022/05/01 00:40:16;;;;;;;;;;;;;;;7.70;89.85;97343.25;30001;983;1864;-62
2022/05/01 00:40:49;;;;;;;;;;;;;;;7.68;89.82;97338.12;30001;983;1873;-61
2022/05/01 00:41:24;;;;;;;;;;;;;;;7.69;90.13;97341.63;30001;986;1868;-60
2022/05/01 00:41:55;;;;;;;;;;;;;;;7.69;90.12;97347.84;30001;983;1868;-63
2022/05/01 00:42:26;;;;;;;;;;;;;;;7.69;89.84;97342.44;30001;983;1868;-62
2022/05/01 00:43:00;;;;;;;;;;;;;;;7.70;89.66;97349.47;30001;983;1882;-62
2022/05/01 00:43:31;;;;;;;;;;;;;;;7.71;89.83;97345.69;30001;983;1877;-62
2022/05/01 00:44:06;;;;;;;;;;;;;;;7.69;89.39;97347.84;30001;968;1897;-61
2022/05/01 00:44:37;;;;;;;;;;;;;;;7.70;89.67;97344.06;30001;982;1877;-62
2022/05/01 00:45:08;;;;;;;;;;;;;;;7.71;89.82;97344.88;30001;982;1869;-62
2022/05/01 00:45:39;;;;;;;;;;;;;;;7.70;89.79;97348.66;30001;982;1869;-61
2022/05/01 00:46:09;;;;;;;;;;;;;;;7.68;89.56;97338.12;30001;986;1882;-62
2022/05/01 00:46:42;;;;;;;;;;;;;;;7.68;89.55;97348.91;30001;982;1877;-59
2022/05/01 00:47:13;;;;;;;;;;;;;;;7.67;89.48;97349.19;30001;982;1869;-62
2022/05/01 00:47:44;;;;;;;;;;;;;;;7.65;89.53;97345.91;30001;983;1868;-61
2022/05/01 00:48:15;;;;;;;;;;;;;;;7.65;89.29;97345.91;30001;983;1881;-62
2022/05/01 00:48:47;;;;;;;;;;;;;;;7.63;89.49;97343.47;30001;983;1777;-61
2022/05/01 00:49:22;;;;;;;;;;;;;;;7.62;89.68;97341.06;30001;983;1881;-61
2022/05/01 00:49:53;;;;;;;;;;;;;;;7.62;89.46;97335.69;30001;983;1864;-62
2022/05/01 00:50:24;;;;;;;;;;;;;;;7.62;89.54;97341.06;30001;983;1873;-62
2022/05/01 00:50:56;;;;;;;;;;;;;;;7.61;89.90;97342.16;30001;983;1849;-61
2022/05/01 00:51:30;;;;;;;;;;;;;;;7.61;89.75;97344.84;30001;983;1881;-62
2022/05/01 00:52:11;;;;;;;;;;;;;;;7.60;89.81;97337.81;30001;982;1877;-62
2022/05/01 00:52:42;;;;;;;;;;;;;;;7.61;89.91;97339.44;30001;982;1869;-59
2022/05/01 00:53:13;;;;;;;;;;;;;;;7.60;89.70;97348.63;30001;982;1869;-62
2022/05/01 00:53:44;;;;;;;;;;;;;;;7.59;89.56;97347.00;30001;982;1882;-60
2022/05/01 00:54:18;;;;;;;;;;;;;;;7.58;89.84;97345.38;30001;982;1878;-61
2022/05/01 00:54:49;;;;;;;;;;;;;;;7.59;89.73;97347.00;30001;982;1882;-61
2022/05/01 00:55:21;;;;;;;;;;;;;;;7.59;89.91;97347.00;30001;983;1877;-61
2022/05/01 00:55:52;;;;;;;;;;;;;;;7.60;90.07;97338.63;30001;983;1868;-61
2022/05/01 00:56:24;;;;;;;;;;;;;;;7.62;89.98;97343.78;30001;983;1868;-61
2022/05/01 00:56:58;;;;;;;;;;;;;;;7.62;89.58;97341.06;30001;983;1881;-61
2022/05/01 00:57:29;;;;;;;;;;;;;;;7.62;90.07;97346.47;30001;983;1877;-62
2022/05/01 00:58:01;;;;;;;;;;;;;;;7.62;89.98;97346.47;30001;983;1868;-62
2022/05/01 00:58:31;;;;;;;;;;;;;;;7.61;90.22;97348.37;30001;982;1869;-62
2022/05/01 00:59:03;;;;;;;;;;;;;;;7.60;89.58;97335.94;30001;983;1882;-62
2022/05/01 00:59:47;;;;;;;;;;;;;;;7.60;90.23;97340.53;30001;982;1877;-61
2022/05/01 01:00:19;;;;;;;;;;;;;;;7.62;90.36;97346.47;30001;982;1869;-63
2022/05/01 01:00:50;;;;;;;;;;;;;;;7.62;89.99;97335.69;30001;982;1869;-62
2022/05/01 01:01:21;;;;;;;;;;;;;;;7.62;89.85;97341.06;30001;982;1882;-61
2022/05/01 01:01:53;;;;;;;;;;;;;;;7.63;90.02;97342.69;30001;983;1877;-63
2022/05/01 01:02:27;;;;;;;;;;;;;;;7.62;89.87;97346.47;30001;983;1881;-61
2022/05/01 01:02:59;;;;;;;;;;;;;;;7.60;89.28;97335.13;30001;983;1863;-61
2022/05/01 01:03:29;;;;;;;;;;;;;;;7.60;89.48;97337.81;30001;983;1872;-60
2022/05/01 01:04:00;;;;;;;;;;;;;;;7.59;89.82;97341.59;30001;982;1878;-62
2022/05/01 01:04:31;;;;;;;;;;;;;;;7.58;89.64;97340.78;30001;983;1881;-62
2022/05/01 01:05:02;;;;;;;;;;;;;;;7.58;89.77;97339.97;30001;983;1877;-62
2022/05/01 01:05:33;;;;;;;;;;;;;;;7.58;89.77;97342.69;30001;983;1868;-62
2022/05/01 01:06:04;;;;;;;;;;;;;;;7.57;90.22;97336.47;30001;983;1869;-61
2022/05/01 01:06:35;;;;;;;;;;;;;;;7.58;90.26;97339.97;30001;983;1882;-61
2022/05/01 01:07:06;;;;;;;;;;;;;;;7.56;90.47;97342.94;30001;982;1878;-61
2022/05/01 01:07:38;;;;;;;;;;;;;;;7.55;90.42;97345.91;30001;982;1882;-61
2022/05/01 01:08:09;;;;;;;;;;;;;;;7.54;90.52;97344.28;30001;982;1864;-59
2022/05/01 01:08:40;;;;;;;;;;;;;;;7.53;90.60;97338.06;30001;982;1873;-61
2022/05/01 01:09:11;;;;;;;;;;;;;;;7.54;90.73;97338.88;30001;983;1877;-62
2022/05/01 01:09:42;;;;;;;;;;;;;;;7.54;90.50;97345.09;30001;983;1872;-61
2022/05/01 01:10:14;;;;;;;;;;;;;;;7.53;90.58;97338.06;30001;983;1872;-62
2022/05/01 01:10:44;;;;;;;;;;;;;;;7.54;90.19;97344.28;30001;983;1885;-61
2022/05/01 01:11:15;;;;;;;;;;;;;;;7.54;90.63;97338.88;30001;983;1881;-62
2022/05/01 01:11:46;;;;;;;;;;;;;;;7.55;90.71;97343.19;30001;983;1873;-62
2022/05/01 01:13:12;;;;;;;;;;;;;;;7.55;90.69;97341.31;30001;983;1873;-63
2022/05/01 01:13:46;;;;;;;;;;;;;;;7.54;90.69;97334.28;30001;983;1873;-60
2022/05/01 01:14:24;;;;;;;;;;;;;;;7.54;90.60;97344.28;30001;982;1886;-62
2022/05/01 01:14:55;;;;;;;;;;;;;;;7.56;90.63;97342.94;30001;982;1862;-61
2022/05/01 01:15:31;;;;;;;;;;;;;;;7.56;90.77;97342.13;30001;978;1884;-60
2022/05/01 01:16:07;;;;;;;;;;;;;;;7.58;90.55;97339.97;30001;982;1873;-61
2022/05/01 01:16:39;;;;;;;;;;;;;;;7.59;90.53;97337.00;30001;982;1886;-62
2022/05/01 01:17:11;;;;;;;;;;;;;;;7.60;90.82;97332.44;30001;983;1881;-62
2022/05/01 01:17:46;;;;;;;;;;;;;;;7.61;90.33;97334.06;30001;983;1872;-61
2022/05/01 01:18:17;;;;;;;;;;;;;;;7.62;90.46;97335.69;30001;983;1872;-61
2022/05/01 01:18:51;;;;;;;;;;;;;;;7.62;89.80;97338.38;30001;987;1877;-62
2022/05/01 01:19:21;;;;;;;;;;;;;;;7.60;89.83;97337.81;30001;983;1886;-61
2022/05/01 01:19:56;;;;;;;;;;;;;;;7.59;89.49;97331.59;30001;983;1881;-62
2022/05/01 01:20:29;;;;;;;;;;;;;;;7.59;89.74;97338.91;30001;983;1873;-62
2022/05/01 01:21:00;;;;;;;;;;;;;;;7.59;89.59;97331.59;30001;983;1873;-62
2022/05/01 01:21:30;;;;;;;;;;;;;;;7.59;89.67;97333.50;30001;983;1886;-62
2022/05/01 01:22:03;;;;;;;;;;;;;;;7.60;89.58;97335.13;30001;982;1882;-59
2022/05/01 01:22:34;;;;;;;;;;;;;;;7.61;89.67;97334.88;30001;982;1873;-62
2022/05/01 01:23:06;;;;;;;;;;;;;;;7.61;89.70;97329.47;30001;982;1873;-62
2022/05/01 01:23:40;;;;;;;;;;;;;;;7.63;89.36;97331.88;30001;982;1873;-62
2022/05/01 01:24:12;;;;;;;;;;;;;;;7.63;89.63;97326.47;30001;982;1873;-62
2022/05/01 01:24:44;;;;;;;;;;;;;;;7.65;89.61;97327.03;30001;983;1885;-64
2022/05/01 01:25:18;;;;;;;;;;;;;;;7.65;89.39;97329.72;30001;983;1881;-62
2022/05/01 01:25:49;;;;;;;;;;;;;;;7.67;89.58;97327.56;30001;983;1872;-62
2022/05/01 01:26:20;;;;;;;;;;;;;;;7.67;89.73;97327.56;30001;983;1872;-62
2022/05/01 01:26:51;;;;;;;;;;;;;;;7.69;89.69;97330.81;30001;983;1885;-62
2022/05/01 01:27:22;;;;;;;;;;;;;;;7.69;89.74;97330.81;30001;986;1873;-62
2022/05/01 01:27:54;;;;;;;;;;;;;;;7.68;89.77;97330.00;30001;983;1886;-63
2022/05/01 01:28:28;;;;;;;;;;;;;;;7.69;89.86;97330.81;30001;985;1856;-62
2022/05/01 01:28:59;;;;;;;;;;;;;;;7.70;89.30;97329.75;30001;983;1860;-62
2022/05/01 01:32:00;;;;;;;;;;;;;;;7.70;89.56;97332.44;30001;983;1868;-63
2022/05/01 01:32:31;;;;;;;;;;;;;;;7.69;89.49;97330.81;30001;983;1868;-60
2022/05/01 01:33:06;;;;;;;;;;;;;;;7.66;89.67;97334.84;30001;983;1881;-62
2022/05/01 01:33:37;;;;;;;;;;;;;;;7.65;89.46;97332.41;30001;983;1877;-60
2022/05/01 01:34:11;;;;;;;;;;;;;;;7.65;89.69;97324.31;30001;983;1868;-61
2022/05/01 01:34:43;;;;;;;;;;;;;;;7.66;89.20;97331.34;30001;983;1868;-59
2022/05/01 01:35:14;;;;;;;;;;;;;;;7.66;89.54;97325.94;30001;983;1882;-62
2022/05/01 01:35:49;;;;;;;;;;;;;;;7.65;89.26;97332.41;30001;983;1877;-62
2022/05/01 01:36:25;;;;;;;;;;;;;;;7.64;89.40;97328.09;30001;982;1882;-62
2022/05/01 01:36:55;;;;;;;;;;;;;;;7.64;89.66;97322.69;30001;982;1877;-62
2022/05/01 01:37:26;;;;;;;;;;;;;;;7.64;89.45;97326.19;30001;982;1869;-60
2022/05/01 01:37:57;;;;;;;;;;;;;;;7.62;89.57;97320.25;30001;982;1869;-63
2022/05/01 01:38:28;;;;;;;;;;;;;;;7.63;89.91;97324.59;30001;982;1882;-60
2022/05/01 01:38:59;;;;;;;;;;;;;;;7.63;89.42;97326.47;30001;982;1878;-60
2022/05/01 01:39:30;;;;;;;;;;;;;;;7.64;89.77;97322.69;30001;983;1882;-62
2022/05/01 01:40:02;;;;;;;;;;;;;;;7.64;89.72;97322.69;30001;983;1877;-61
2022/05/01 01:40:49;;;;;;;;;;;;;;;7.64;90.00;97323.50;30001;983;1881;-60
2022/05/01 01:41:22;;;;;;;;;;;;;;;7.65;89.85;97318.91;30001;983;1864;-61
2022/05/01 01:41:54;;;;;;;;;;;;;;;7.64;90.08;97323.50;30001;983;1873;-60
2022/05/01 01:42:29;;;;;;;;;;;;;;;7.64;89.96;97318.09;30001;983;1877;-62
2022/05/01 01:43:01;;;;;;;;;;;;;;;7.64;89.93;97328.91;30001;983;1881;-63
2022/05/01 01:43:32;;;;;;;;;;;;;;;7.64;90.36;97325.41;30001;982;1877;-63
2022/05/01 01:44:04;;;;;;;;;;;;;;;7.64;90.39;97323.50;30001;982;1882;-63
2022/05/01 01:44:38;;;;;;;;;;;;;;;7.64;89.93;97322.69;30001;982;1877;-61
2022/05/01 01:45:10;;;;;;;;;;;;;;;7.65;90.10;97324.31;30001;982;1882;-62
2022/05/01 01:45:41;;;;;;;;;;;;;;;7.65;90.32;97324.31;30001;982;1877;-61
2022/05/01 01:46:12;;;;;;;;;;;;;;;7.65;90.21;97324.31;30001;982;1869;-60
2022/05/01 01:46:45;;;;;;;;;;;;;;;7.66;90.18;97325.94;30001;982;1856;-61
2022/05/01 01:47:17;;;;;;;;;;;;;;;7.65;90.09;97325.13;30001;983;1881;-63
2022/05/01 01:47:49;;;;;;;;;;;;;;;7.64;89.91;97323.50;30001;983;1877;-61
2022/05/01 01:48:21;;;;;;;;;;;;;;;7.61;89.96;97325.94;30001;983;1881;-61
2022/05/01 01:48:52;;;;;;;;;;;;;;;7.61;90.22;97318.66;30001;983;1877;-63
2022/05/01 01:49:23;;;;;;;;;;;;;;;7.60;90.49;97322.44;30001;983;1868;-61
2022/05/01 01:49:54;;;;;;;;;;;;;;;7.59;89.91;97326.22;30001;983;1868;-61
2022/05/01 01:50:26;;;;;;;;;;;;;;;7.59;90.33;97325.41;30001;983;1882;-63
2022/05/01 01:51:04;;;;;;;;;;;;;;;7.59;90.36;97320.00;30001;983;1877;-60
2022/05/01 01:51:35;;;;;;;;;;;;;;;7.58;90.65;97319.19;30001;982;1882;-63
2022/05/01 01:52:06;;;;;;;;;;;;;;;7.58;90.00;97321.06;30001;982;1878;-61
2022/05/01 01:52:37;;;;;;;;;;;;;;;7.58;90.49;97318.37;30001;982;1882;-61
2022/05/01 01:53:08;;;;;;;;;;;;;;;7.58;90.46;97318.37;30001;982;1878;-63
2022/05/01 01:53:39;;;;;;;;;;;;;;;7.59;90.02;97314.59;30001;982;1869;-62
2022/05/01 01:54:12;;;;;;;;;;;;;;;7.59;90.46;97314.59;30001;982;1869;-60
2022/05/01 01:54:43;;;;;;;;;;;;;;;7.59;90.60;97322.69;30001;983;1881;-62
2022/05/01 01:55:15;;;;;;;;;;;;;;;7.59;90.38;97315.41;30001;983;1877;-62
2022/05/01 01:55:45;;;;;;;;;;;;;;;7.59;90.55;97320.81;30001;983;1881;-62
2022/05/01 01:56:16;;;;;;;;;;;;;;;7.57;90.41;97316.75;30001;983;1877;-62
2022/05/01 01:56:47;;;;;;;;;;;;;;;7.56;90.64;97320.53;30001;983;1881;-61
2022/05/01 01:57:18;;;;;;;;;;;;;;;7.55;90.51;97318.87;30001;983;1804;-59
2022/05/01 01:57:49;;;;;;;;;;;;;;;7.54;90.89;97318.09;30001;983;1873;-61
2022/05/01 01:58:21;;;;;;;;;;;;;;;7.54;90.32;97317.25;30001;983;1877;-62
2022/05/01 01:58:52;;;;;;;;;;;;;;;7.53;90.88;97321.03;30001;982;1882;-63
2022/05/01 01:59:23;;;;;;;;;;;;;;;7.54;90.61;97322.66;30001;982;1877;-63
2022/05/01 02:00:03;;;;;;;;;;;;;;;7.53;90.63;97316.44;30001;982;1762;-63
2022/05/01 02:00:34;;;;;;;;;;;;;;;7.53;90.67;97316.44;30001;982;1869;-60
2022/05/01 02:01:14;;;;;;;;;;;;;;;7.54;90.84;97322.66;30001;982;1882;-60
2022/05/01 02:01:45;;;;;;;;;;;;;;;7.54;90.72;97318.09;30001;982;1878;-64
2022/05/01 02:02:16;;;;;;;;;;;;;;;7.55;90.74;97314.31;30001;983;1881;-62
2022/05/01 02:02:46;;;;;;;;;;;;;;;7.57;90.76;97322.16;30001;983;1877;-63
2022/05/01 02:03:18;;;;;;;;;;;;;;;7.58;90.67;97318.37;30001;983;1785;-62
2022/05/01 02:03:48;;;;;;;;;;;;;;;7.58;90.27;97312.97;30001;983;1877;-61
2022/05/01 02:04:19;;;;;;;;;;;;;;;7.58;90.64;97318.37;30001;983;1881;-61
2022/05/01 02:04:50;;;;;;;;;;;;;;;7.59;90.08;97315.41;30001;983;1877;-63
2022/05/01 02:05:24;;;;;;;;;;;;;;;7.60;90.10;97316.22;30001;983;1868;-62
2022/05/01 02:05:56;;;;;;;;;;;;;;;7.60;90.06;97314.34;30001;983;1868;-59
2022/05/01 02:06:30;;;;;;;;;;;;;;;7.60;90.09;97313.53;30001;982;1882;-62
2022/05/01 02:07:01;;;;;;;;;;;;;;;7.60;89.88;97317.03;30001;982;1878;-62
2022/05/01 02:07:32;;;;;;;;;;;;;;;7.60;89.89;97314.34;30001;982;1882;-62
2022/05/01 02:08:06;;;;;;;;;;;;;;;7.61;89.59;97312.44;30001;982;1878;-63
2022/05/01 02:08:37;;;;;;;;;;;;;;;7.61;89.80;97313.25;30001;982;1882;-62
2022/05/01 02:09:08;;;;;;;;;;;;;;;7.60;89.56;97316.22;30001;983;1877;-60
2022/05/01 02:09:39;;;;;;;;;;;;;;;7.60;90.02;97314.34;30001;983;1881;-62
2022/05/01 02:10:10;;;;;;;;;;;;;;;7.61;89.50;97317.84;30001;983;1877;-61
2022/05/01 02:10:41;;;;;;;;;;;;;;;7.60;89.77;97321.62;30001;983;1868;-61
2022/05/01 02:11:12;;;;;;;;;;;;;;;7.60;90.02;97310.81;30001;983;1855;-61
2022/05/01 02:11:43;;;;;;;;;;;;;;;7.60;89.91;97314.34;30001;983;1881;-61
2022/05/01 02:12:14;;;;;;;;;;;;;;;7.61;90.17;97315.16;30001;983;1864;-63
2022/05/01 02:12:45;;;;;;;;;;;;;;;7.61;89.85;97309.75;30001;983;1860;-61
2022/05/01 02:13:16;;;;;;;;;;;;;;;7.60;90.30;97313.53;30001;983;1877;-62
2022/05/01 02:13:47;;;;;;;;;;;;;;;7.59;90.38;97303.78;30001;982;1882;-62
2022/05/01 02:14:19;;;;;;;;;;;;;;;7.59;90.10;97311.91;30001;982;1877;-61
2022/05/01 02:14:50;;;;;;;;;;;;;;;7.59;90.39;97306.50;30001;982;1882;-62
2022/05/01 02:15:20;;;;;;;;;;;;;;;7.59;90.42;97307.31;30001;982;1864;-60
2022/05/01 02:15:53;;;;;;;;;;;;;;;7.59;90.64;97312.72;30001;982;1873;-62
2022/05/01 02:16:25;;;;;;;;;;;;;;;7.59;90.59;97314.59;30001;983;1877;-62
2022/05/01 02:16:57;;;;;;;;;;;;;;;7.57;90.96;97309.44;30001;983;1881;-61
2022/05/01 02:17:28;;;;;;;;;;;;;;;7.58;90.75;97307.56;30001;983;1877;-63
2022/05/01 02:18:00;;;;;;;;;;;;;;;7.57;91.13;97312.16;30001;983;1881;-62
2022/05/01 02:18:31;;;;;;;;;;;;;;;7.57;91.03;97311.34;30001;983;1877;-62
2022/05/01 02:19:02;;;;;;;;;;;;;;;7.56;90.65;97310.53;30001;983;1868;-64
2022/05/01 02:19:33;;;;;;;;;;;;;;;7.56;90.83;97315.12;30001;983;1855;-62
2022/05/01 02:20:04;;;;;;;;;;;;;;;7.56;90.73;97304.31;30001;983;1881;-63
2022/05/01 02:21:35;;;;;;;;;;;;;;;7.52;90.27;97312.13;30001;982;1882;-62
2022/05/01 02:22:06;;;;;;;;;;;;;;;7.52;90.42;97314.00;30001;982;1877;-61
2022/05/01 02:22:40;;;;;;;;;;;;;;;7.53;90.46;97315.63;30001;981;1883;-62
2022/05/01 02:23:11;;;;;;;;;;;;;;;7.52;90.57;97306.72;30001;982;1878;-62
2022/05/01 02:23:42;;;;;;;;;;;;;;;7.52;90.49;97308.63;30001;982;1882;-62
2022/05/01 02:24:16;;;;;;;;;;;;;;;7.52;90.52;97306.72;30001;983;1877;-63
2022/05/01 02:24:47;;;;;;;;;;;;;;;7.54;90.31;97306.47;30001;983;1868;-62
2022/05/01 02:25:17;;;;;;;;;;;;;;;7.52;90.45;97314.81;30001;983;1868;-62
2022/05/01 02:25:48;;;;;;;;;;;;;;;7.53;90.38;97315.63;30001;983;1881;-62
2022/05/01 02:26:19;;;;;;;;;;;;;;;7.53;90.22;97310.25;30001;983;1877;-62
2022/05/01 02:26:50;;;;;;;;;;;;;;;7.53;90.54;97310.25;30001;983;1881;-64
2022/05/01 02:27:21;;;;;;;;;;;;;;;7.53;90.53;97310.25;30001;983;1877;-61
2022/05/01 02:27:51;;;;;;;;;;;;;;;7.53;90.62;97305.66;30001;983;1881;-62
2022/05/01 02:28:22;;;;;;;;;;;;;;;7.53;90.67;97304.84;30001;982;1877;-61
2022/05/01 02:28:54;;;;;;;;;;;;;;;7.54;90.50;97307.28;30001;982;1882;-62
2022/05/01 02:29:25;;;;;;;;;;;;;;;7.54;90.28;97301.06;30001;982;1877;-61
2022/05/01 02:29:59;;;;;;;;;;;;;;;7.53;90.74;97305.66;30001;982;1869;-61
2022/05/01 02:30:30;;;;;;;;;;;;;;;7.52;90.64;97304.03;30001;982;1869;-63
2022/05/01 02:31:01;;;;;;;;;;;;;;;7.53;90.35;97304.84;30001;982;1882;-61
2022/05/01 02:31:32;;;;;;;;;;;;;;;7.53;90.34;97304.84;30001;983;1877;-62
2022/05/01 02:32:04;;;;;;;;;;;;;;;7.53;90.49;97302.94;30001;983;1881;-62
2022/05/01 02:32:38;;;;;;;;;;;;;;;7.54;90.39;97304.56;30001;983;1877;-61
2022/05/01 02:33:09;;;;;;;;;;;;;;;7.54;90.35;97301.06;30001;983;1881;-63
2022/05/01 02:33:40;;;;;;;;;;;;;;;7.53;90.35;97299.44;30001;983;1877;-62
2022/05/01 02:34:12;;;;;;;;;;;;;;;7.53;90.11;97304.84;30001;983;1868;-63
2022/05/01 02:34:43;;;;;;;;;;;;;;;7.52;90.43;97298.62;30001;983;1869;-62
2022/05/01 02:35:13;;;;;;;;;;;;;;;7.53;90.07;97302.94;30001;983;1869;-59
2022/05/01 02:35:46;;;;;;;;;;;;;;;7.53;90.39;97302.94;30001;982;1868;-61
2022/05/01 02:36:16;;;;;;;;;;;;;;;7.52;89.97;97298.62;30001;982;1882;-62
2022/05/01 02:36:48;;;;;;;;;;;;;;;7.51;90.09;97301.59;30001;982;1877;-61
2022/05/01 02:37:19;;;;;;;;;;;;;;;7.50;90.33;97289.16;30001;982;1882;-61
2022/05/01 02:37:49;;;;;;;;;;;;;;;7.51;90.12;97298.88;30001;982;1878;-60
2022/05/01 02:38:20;;;;;;;;;;;;;;;7.50;89.77;97294.56;30001;982;1882;-61
2022/05/01 02:38:52;;;;;;;;;;;;;;;7.51;90.36;97291.59;30001;982;1878;-62
2022/05/01 02:39:26;;;;;;;;;;;;;;;7.51;90.01;97296.19;30001;983;1868;-62
2022/05/01 02:39:57;;;;;;;;;;;;;;;7.51;90.35;97294.31;30001;983;1855;-62
2022/05/01 02:40:29;;;;;;;;;;;;;;;7.51;90.28;97290.78;30001;983;1881;-62
2022/05/01 02:41:01;;;;;;;;;;;;;;;7.50;90.25;97284.56;30001;983;1877;-61
2022/05/01 02:41:32;;;;;;;;;;;;;;;7.51;90.33;97293.50;30001;983;1882;-61
2022/05/01 02:42:03;;;;;;;;;;;;;;;7.48;90.16;97285.91;30001;983;1877;-63
2022/05/01 02:42:36;;;;;;;;;;;;;;;7.47;90.41;97289.69;30001;983;1882;-63
2022/05/01 02:43:06;;;;;;;;;;;;;;;7.47;90.67;97290.50;30001;982;1877;-61
2022/05/01 02:43:37;;;;;;;;;;;;;;;7.46;90.74;97290.75;30001;982;1882;-62
2022/05/01 02:44:08;;;;;;;;;;;;;;;7.45;90.50;97287.25;30001;982;1878;-60
2022/05/01 02:44:39;;;;;;;;;;;;;;;7.44;90.41;97285.63;30001;982;1869;-62
2022/05/01 02:45:10;;;;;;;;;;;;;;;7.45;90.51;97286.44;30001;982;1869;-61
2022/05/01 02:45:41;;;;;;;;;;;;;;;7.44;90.49;97287.50;30001;982;1882;-61
2022/05/01 02:46:15;;;;;;;;;;;;;;;7.41;90.37;97286.16;30001;964;1895;-62
2022/05/01 02:46:46;;;;;;;;;;;;;;;7.42;90.26;97286.97;30001;983;1868;-62
2022/05/01 02:47:17;;;;;;;;;;;;;;;7.39;90.21;97282.91;30001;983;1868;-62
2022/05/01 02:47:48;;;;;;;;;;;;;;;7.36;89.77;97286.13;30001;983;1881;-61
2022/05/01 02:48:30;;;;;;;;;;;;;;;7.34;90.14;97280.97;30001;983;1877;-61
2022/05/01 02:49:01;;;;;;;;;;;;;;;7.31;90.57;97283.38;30001;983;1882;-62
2022/05/01 02:49:35;;;;;;;;;;;;;;;7.27;90.30;97280.44;30001;983;1877;-62
2022/05/01 02:50:08;;;;;;;;;;;;;;;7.25;90.83;97287.16;30001;983;1882;-62
2022/05/01 02:50:39;;;;;;;;;;;;;;;7.20;90.63;97282.53;30001;982;1877;-62
2022/05/01 02:51:14;;;;;;;;;;;;;;;7.18;90.99;97286.56;30001;956;1908;-61
2022/05/01 02:51:53;;;;;;;;;;;;;;;7.16;91.17;97283.31;30001;982;1864;-60
2022/05/01 02:52:24;;;;;;;;;;;;;;;7.12;91.17;97285.72;30001;982;1873;-62
2022/05/01 02:52:55;;;;;;;;;;;;;;;7.11;91.27;97284.09;30001;982;1877;-63
2022/05/01 02:53:26;;;;;;;;;;;;;;;7.10;91.39;97279.78;30001;983;1881;-62
2022/05/01 02:54:04;;;;;;;;;;;;;;;7.08;90.93;97281.91;30001;983;1877;-62
2022/05/01 02:54:35;;;;;;;;;;;;;;;7.05;91.13;97282.44;30001;983;1881;-62
2022/05/01 02:55:06;;;;;;;;;;;;;;;7.01;91.20;97275.94;30001;983;1877;-62
2022/05/01 02:55:37;;;;;;;;;;;;;;;6.99;91.57;97281.59;30001;983;1881;-60
2022/05/01 02:56:08;;;;;;;;;;;;;;;6.96;91.94;97279.41;30001;983;1864;-62
2022/05/01 02:56:38;;;;;;;;;;;;;;;6.94;91.70;97280.75;30001;983;1873;-61
2022/05/01 02:57:09;;;;;;;;;;;;;;;6.90;91.34;97280.47;30001;970;1899;-61
2022/05/01 02:57:41;;;;;;;;;;;;;;;6.88;91.68;97287.19;30001;983;1869;-62
2022/05/01 02:58:12;;;;;;;;;;;;;;;6.85;91.63;97277.75;30001;982;1869;-60
2022/05/01 02:58:42;;;;;;;;;;;;;;;6.84;91.59;97280.69;30001;982;1882;-61
2022/05/01 02:59:14;;;;;;;;;;;;;;;6.85;91.79;97276.94;30001;982;1878;-62
2022/05/01 02:59:48;;;;;;;;;;;;;;;6.83;91.43;97285.28;30001;982;1882;-62
2022/05/01 03:00:22;;;;;;;;;;;;;;;6.82;91.73;97277.44;30001;982;1877;-61
2022/05/01 03:00:53;;;;;;;;;;;;;;;6.83;92.09;97285.28;30001;983;1881;-62
2022/05/01 03:01:24;;;;;;;;;;;;;;;6.84;92.22;97278.00;30001;983;1877;-60
2022/05/01 03:01:55;;;;;;;;;;;;;;;6.83;92.02;97290.66;30001;983;1868;-63